Time;durP1;ratioP1;P1;durP2;ratioP2;P2;SDS_P1;SDS_P2;PMS_P1;PMS_P2;Temp;Humidity;BMP_temperature;BMP_pressure;BME280_temperature;BME280_humidity;BME280_pressure;Samples;Min_cycle;Max_cycle;Signal;HPM_P1;HPM_P2
2021/09/17 00:02:02;;;;;;;1.60;1.50;;;24.80;54.40;;;;;;5028777;28;20670;-52
2021/09/17 00:04:28;;;;;;;1.50;1.40;;;24.80;54.30;;;;;;5029923;28;20229;-48
2021/09/17 00:06:55;;;;;;;2.15;1.73;;;24.80;54.40;;;;;;5028700;28;20238;-48
2021/09/17 00:09:21;;;;;;;1.70;1.60;;;24.80;54.40;;;;;;5029045;28;20785;-46
2021/09/17 00:11:48;;;;;;;2.00;1.90;;;24.80;54.40;;;;;;5032058;28;20234;-48
2021/09/17 00:14:14;;;;;;;1.70;1.60;;;24.80;54.40;;;;;;5033560;28;20285;-52
2021/09/17 00:16:41;;;;;;;2.00;1.60;;;24.80;54.30;;;;;;5032604;28;20286;-48
2021/09/17 00:19:07;;;;;;;2.05;1.67;;;24.80;54.30;;;;;;5032599;28;20285;-46
2021/09/17 00:21:34;;;;;;;1.77;1.67;;;24.80;54.30;;;;;;5031098;28;20269;-47
2021/09/17 00:24:00;;;;;;;1.33;1.23;;;24.80;54.40;;;;;;5033182;28;20286;-46
2021/09/17 00:26:27;;;;;;;1.75;1.60;;;24.80;54.30;;;;;;5032577;28;20252;-45
2021/09/17 00:28:53;;;;;;;1.98;1.80;;;24.80;54.30;;;;;;5033232;28;20254;-46
2021/09/17 00:31:20;;;;;;;2.63;1.52;;;24.80;54.30;;;;;;5032145;28;20237;-50
2021/09/17 00:33:46;;;;;;;1.70;1.60;;;24.80;54.30;;;;;;5032523;28;20602;-47
2021/09/17 00:36:13;;;;;;;1.70;1.60;;;24.80;54.30;;;;;;5031846;28;20241;-47
2021/09/17 00:38:39;;;;;;;1.60;1.50;;;24.80;54.30;;;;;;5031537;28;20242;-50
2021/09/17 00:41:06;;;;;;;1.83;1.67;;;24.80;54.30;;;;;;5032153;28;20317;-47
2021/09/17 00:43:32;;;;;;;1.60;1.50;;;24.70;54.20;;;;;;5032034;28;20284;-47
2021/09/17 00:45:59;;;;;;;1.67;1.58;;;24.80;54.20;;;;;;5033114;28;20238;-48
2021/09/17 00:48:25;;;;;;;1.85;1.75;;;24.70;54.10;;;;;;5031435;28;20318;-47
2021/09/17 00:50:52;;;;;;;1.80;1.70;;;24.80;54.90;;;;;;5032583;28;20226;-49
2021/09/17 00:53:18;;;;;;;1.52;1.42;;;24.70;54.10;;;;;;5031740;28;20258;-49
2021/09/17 00:55:45;;;;;;;1.35;1.25;;;24.70;54.10;;;;;;5032779;28;20610;-47
2021/09/17 00:58:11;;;;;;;2.10;2.00;;;24.70;54.20;;;;;;5031062;28;20230;-48
2021/09/17 01:00:38;;;;;;;3.28;1.80;;;24.70;54.10;;;;;;5032620;28;20297;-49
2021/09/17 01:03:04;;;;;;;1.73;1.63;;;24.70;54.10;;;;;;5031559;28;20306;-47
2021/09/17 01:05:30;;;;;;;1.70;1.60;;;24.70;54.10;;;;;;5032699;28;20230;-48
2021/09/17 01:07:57;;;;;;;1.80;1.70;;;24.70;54.10;;;;;;5031196;28;20230;-47
2021/09/17 01:10:23;;;;;;;1.63;1.52;;;24.70;54.10;;;;;;5032421;28;20262;-48
2021/09/17 01:12:50;;;;;;;2.47;1.77;;;24.70;54.10;;;;;;5030749;28;20718;-47
2021/09/17 01:15:16;;;;;;;1.70;1.60;;;24.70;54.10;;;;;;5032889;28;20282;-49
2021/09/17 01:17:43;;;;;;;1.67;1.58;;;24.70;54.10;;;;;;5031141;28;20294;-47
2021/09/17 01:20:09;;;;;;;1.55;1.45;;;24.70;54.00;;;;;;5032703;28;20241;-47
2021/09/17 01:22:36;;;;;;;1.60;1.50;;;24.70;54.00;;;;;;5030683;28;20266;-45
2021/09/17 01:25:02;;;;;;;1.70;1.60;;;24.70;54.00;;;;;;5032196;28;20231;-50
2021/09/17 01:27:29;;;;;;;1.65;1.55;;;24.70;54.00;;;;;;5030848;28;20245;-47
2021/09/17 01:29:55;;;;;;;1.80;1.70;;;24.70;54.00;;;;;;5031313;28;20329;-46
2021/09/17 01:32:22;;;;;;;1.73;1.60;;;24.70;54.00;;;;;;5030966;28;20659;-49
2021/09/17 01:34:48;;;;;;;1.50;1.40;;;24.70;54.00;;;;;;5036543;28;20229;-46
2021/09/17 01:37:15;;;;;;;1.75;1.65;;;24.70;53.90;;;;;;5030129;28;20298;-47
2021/09/17 01:39:41;;;;;;;1.80;1.70;;;24.70;53.90;;;;;;5029942;28;20697;-48
2021/09/17 01:42:08;;;;;;;1.50;1.40;;;24.70;53.90;;;;;;5030511;28;20274;-46
2021/09/17 01:44:34;;;;;;;1.77;1.67;;;24.70;54.00;;;;;;5032102;28;20241;-51
2021/09/17 01:47:01;;;;;;;1.63;1.52;;;24.70;54.00;;;;;;5029744;28;20687;-46
2021/09/17 01:49:27;;;;;;;1.33;1.23;;;24.70;53.90;;;;;;5031488;28;20266;-47
2021/09/17 01:51:54;;;;;;;1.85;1.75;;;24.70;53.90;;;;;;5030499;28;20253;-49
2021/09/17 01:54:20;;;;;;;1.58;1.48;;;24.70;53.90;;;;;;5031879;28;20206;-46
2021/09/17 01:56:47;;;;;;;2.08;1.60;;;24.70;53.90;;;;;;5031737;28;20286;-47
2021/09/17 01:59:13;;;;;;;1.90;1.70;;;24.70;53.90;;;;;;5029533;28;20296;-48
2021/09/17 02:01:40;;;;;;;1.58;1.48;;;24.70;53.90;;;;;;5032921;28;20264;-47
2021/09/17 02:04:06;;;;;;;1.73;1.63;;;24.70;53.90;;;;;;5029981;28;20238;-45
2021/09/17 02:06:33;;;;;;;1.50;1.40;;;24.70;53.90;;;;;;5031875;28;20226;-46
2021/09/17 02:09:01;;;;;;;1.52;1.42;;;24.70;53.90;;;;;;5030334;28;20264;-51
2021/09/17 02:11:28;;;;;;;1.70;1.60;;;24.70;53.90;;;;;;5031399;28;20474;-47
2021/09/17 02:13:55;;;;;;;1.60;1.50;;;24.70;53.90;;;;;;5030290;28;20652;-46
2021/09/17 02:16:21;;;;;;;1.77;1.67;;;24.70;53.90;;;;;;5031297;28;20240;-46
2021/09/17 02:18:48;;;;;;;1.50;1.40;;;24.70;53.90;;;;;;5030229;28;20268;-52
2021/09/17 02:21:20;;;;;;;1.70;1.60;;;24.70;53.90;;;;;;5032544;28;20280;-49
2021/09/17 02:23:47;;;;;;;1.50;1.40;;;24.70;53.90;;;;;;5029162;28;20205;-51
2021/09/17 02:26:13;;;;;;;1.77;1.67;;;24.70;53.90;;;;;;5030370;28;20230;-52
2021/09/17 02:28:40;;;;;;;1.60;1.50;;;24.70;53.90;;;;;;5029835;28;20230;-45
2021/09/17 02:31:06;;;;;;;1.85;1.60;;;24.70;53.90;;;;;;5031063;28;20276;-55
2021/09/17 02:33:33;;;;;;;1.83;1.73;;;24.70;53.90;;;;;;5028487;28;20220;-57
2021/09/17 02:35:59;;;;;;;2.08;1.70;;;24.70;53.90;;;;;;5029980;28;20241;-48
2021/09/17 02:38:26;;;;;;;2.45;1.65;;;24.70;53.90;;;;;;5029583;28;20298;-45
2021/09/17 02:40:52;;;;;;;1.67;1.58;;;24.70;53.90;;;;;;5030054;28;20643;-45
2021/09/17 02:43:19;;;;;;;1.50;1.40;;;24.70;53.90;;;;;;5029588;28;20262;-46
2021/09/17 02:45:45;;;;;;;1.45;1.35;;;24.70;53.90;;;;;;5029886;28;20241;-46
2021/09/17 02:48:12;;;;;;;1.60;1.50;;;24.70;53.90;;;;;;5030571;28;20900;-45
2021/09/17 02:50:38;;;;;;;1.70;1.60;;;24.70;53.90;;;;;;5030394;28;20226;-48
2021/09/17 02:53:05;;;;;;;1.67;1.58;;;24.70;53.90;;;;;;5027854;28;20298;-45
2021/09/17 02:55:31;;;;;;;1.70;1.60;;;24.70;53.90;;;;;;5030540;28;20610;-48
2021/09/17 02:57:58;;;;;;;1.75;1.58;;;24.70;53.90;;;;;;5027302;28;20314;-48
2021/09/17 03:00:24;;;;;;;1.48;1.38;;;24.70;53.90;;;;;;5030739;28;20764;-45
2021/09/17 03:02:51;;;;;;;1.70;1.60;;;24.70;53.90;;;;;;5027475;28;20292;-46
2021/09/17 03:05:17;;;;;;;1.63;1.52;;;24.70;53.90;;;;;;5030192;28;20671;-46
2021/09/17 03:07:44;;;;;;;1.70;1.60;;;24.70;53.90;;;;;;5028234;28;20234;-46
2021/09/17 03:10:11;;;;;;;1.77;1.50;;;24.70;53.90;;;;;;5030534;28;20320;-51
2021/09/17 03:12:37;;;;;;;1.80;1.70;;;24.70;53.90;;;;;;5029816;28;20257;-48
2021/09/17 03:15:04;;;;;;;1.70;1.60;;;24.70;53.90;;;;;;5029752;28;20298;-51
2021/09/17 03:17:30;;;;;;;1.33;1.23;;;24.70;53.90;;;;;;5028990;28;20294;-45
2021/09/17 03:19:56;;;;;;;1.70;1.60;;;24.70;53.80;;;;;;5029861;28;20273;-45
2021/09/17 03:22:23;;;;;;;1.67;1.58;;;24.70;54.00;;;;;;5030786;28;20257;-46
2021/09/17 03:24:50;;;;;;;1.63;1.52;;;24.70;54.10;;;;;;5029237;28;20245;-47
2021/09/17 03:27:16;;;;;;;1.40;1.30;;;24.70;54.20;;;;;;5029519;28;20694;-49
2021/09/17 03:29:43;;;;;;;1.67;1.58;;;24.70;54.20;;;;;;5029760;28;20284;-46
2021/09/17 03:32:09;;;;;;;1.60;1.50;;;24.70;54.20;;;;;;5030154;28;20249;-45
2021/09/17 03:34:36;;;;;;;1.50;1.40;;;24.70;54.20;;;;;;5028192;28;20681;-45
2021/09/17 03:37:03;;;;;;;1.77;1.52;;;24.70;54.20;;;;;;5029014;28;20629;-46
2021/09/17 03:39:29;;;;;;;2.22;1.42;;;24.70;54.20;;;;;;5029777;28;20335;-45
2021/09/17 03:41:55;;;;;;;1.70;1.60;;;24.70;54.20;;;;;;5027869;28;20250;-47
2021/09/17 03:44:22;;;;;;;1.60;1.50;;;24.70;54.10;;;;;;5029043;28;20636;-49
2021/09/17 03:46:49;;;;;;;1.50;1.40;;;24.70;54.20;;;;;;5032041;28;20228;-46
2021/09/17 03:49:15;;;;;;;1.88;1.65;;;24.70;54.10;;;;;;5033964;28;20644;-46
2021/09/17 03:51:42;;;;;;;1.30;1.20;;;24.70;54.10;;;;;;5032728;28;20226;-46
2021/09/17 03:54:08;;;;;;;1.58;1.48;;;24.70;54.10;;;;;;5034083;28;20598;-48
2021/09/17 03:56:34;;;;;;;1.50;1.40;;;24.70;54.10;;;;;;5032619;28;20230;-50
2021/09/17 03:59:01;;;;;;;1.50;1.40;;;24.70;54.10;;;;;;5033616;28;20237;-52
2021/09/17 04:01:27;;;;;;;1.70;1.60;;;24.70;54.80;;;;;;5032609;28;20766;-45
2021/09/17 04:03:54;;;;;;;1.70;1.40;;;24.70;54.80;;;;;;5033306;28;20233;-46
2021/09/17 04:06:21;;;;;;;1.80;1.33;;;24.70;54.10;;;;;;5032551;28;20293;-45
2021/09/17 04:08:47;;;;;;;1.65;1.55;;;24.70;54.10;;;;;;5032113;28;20289;-47
2021/09/17 04:11:14;;;;;;;1.52;1.42;;;24.70;54.10;;;;;;5033715;28;20389;-48
2021/09/17 04:13:41;;;;;;;1.67;1.58;;;24.70;54.10;;;;;;5032914;28;20238;-47
2021/09/17 04:16:07;;;;;;;1.35;1.30;;;24.70;54.00;;;;;;5033431;28;20260;-48
2021/09/17 04:18:33;;;;;;;2.05;1.52;;;24.70;54.00;;;;;;5030591;28;20736;-45
2021/09/17 04:21:00;;;;;;;1.55;1.30;;;24.70;54.00;;;;;;5033586;28;20238;-46
2021/09/17 04:23:26;;;;;;;1.30;1.20;;;24.70;54.10;;;;;;5024423;28;20235;-51
2021/09/17 04:25:53;;;;;;;2.90;1.65;;;24.70;54.10;;;;;;5020480;28;20671;-46
2021/09/17 04:28:19;;;;;;;1.40;1.30;;;24.70;54.00;;;;;;5031929;28;20230;-48
2021/09/17 04:30:46;;;;;;;1.50;1.40;;;24.70;54.10;;;;;;5032885;28;20389;-49
2021/09/17 04:33:16;;;;;;;1.50;1.40;;;24.70;54.10;;;;;;5032573;28;20234;-49
2021/09/17 04:35:42;;;;;;;2.15;1.77;;;24.70;54.20;;;;;;5033181;28;20213;-48
2021/09/17 04:38:09;;;;;;;1.77;1.45;;;24.70;54.20;;;;;;5031187;28;20206;-48
2021/09/17 04:40:35;;;;;;;1.73;1.42;;;24.70;54.30;;;;;;5033112;28;20309;-48
2021/09/17 04:43:02;;;;;;;1.70;1.60;;;24.70;54.30;;;;;;5031719;28;20256;-47
2021/09/17 04:45:29;;;;;;;1.70;1.60;;;24.70;54.30;;;;;;5032798;28;20218;-47
2021/09/17 04:47:55;;;;;;;1.42;1.33;;;24.70;54.20;;;;;;5029958;28;20237;-46
2021/09/17 04:50:22;;;;;;;2.00;1.90;;;24.70;54.30;;;;;;5031594;28;20289;-46
2021/09/17 04:52:51;;;;;;;3.03;1.33;;;24.70;54.30;;;;;;5032745;28;20250;-49
2021/09/17 04:55:18;;;;;;;1.63;1.50;;;24.70;54.20;;;;;;5032037;28;20233;-50
2021/09/17 04:57:44;;;;;;;1.92;1.60;;;24.70;54.20;;;;;;5031032;28;20205;-48
2021/09/17 05:00:11;;;;;;;1.63;1.40;;;24.70;54.20;;;;;;5031851;28;20670;-47
2021/09/17 05:02:37;;;;;;;1.77;1.50;;;24.70;54.20;;;;;;5032935;28;20218;-47
2021/09/17 05:05:04;;;;;;;1.67;1.58;;;24.70;54.20;;;;;;5031651;28;20237;-47
2021/09/17 05:07:30;;;;;;;1.52;1.42;;;24.70;54.20;;;;;;5031919;28;20726;-48
2021/09/17 05:09:57;;;;;;;1.77;1.58;;;24.70;54.20;;;;;;5029912;28;20258;-51
2021/09/17 05:12:23;;;;;;;2.13;1.60;;;24.70;54.20;;;;;;5033014;28;20254;-46
2021/09/17 05:14:50;;;;;;;1.80;1.67;;;24.70;54.10;;;;;;5031720;28;20693;-47
2021/09/17 05:17:16;;;;;;;1.90;1.30;;;24.70;54.20;;;;;;5032117;28;20233;-46
2021/09/17 05:19:43;;;;;;;1.77;1.67;;;24.60;54.10;;;;;;5030576;28;20324;-53
2021/09/17 05:22:09;;;;;;;1.50;1.40;;;24.60;54.00;;;;;;5032306;28;20253;-50
2021/09/17 05:24:36;;;;;;;1.63;1.52;;;24.70;54.10;;;;;;5031691;28;20261;-49
2021/09/17 05:27:02;;;;;;;1.60;1.50;;;24.60;54.00;;;;;;5031311;28;20678;-51
2021/09/17 05:29:29;;;;;;;1.40;1.30;;;24.70;54.10;;;;;;5030393;28;20418;-46
2021/09/17 05:31:56;;;;;;;1.55;1.20;;;24.70;54.10;;;;;;5032334;28;20222;-51
2021/09/17 05:34:22;;;;;;;1.70;1.60;;;24.70;54.00;;;;;;5031248;28;20230;-47
2021/09/17 05:36:49;;;;;;;1.40;1.30;;;24.70;54.10;;;;;;5031817;28;20241;-46
2021/09/17 05:39:16;;;;;;;1.80;1.38;;;24.70;54.00;;;;;;5030341;28;20234;-50
2021/09/17 05:41:42;;;;;;;2.85;1.75;;;24.70;54.10;;;;;;5031418;28;20250;-56
2021/09/17 05:44:09;;;;;;;1.73;1.63;;;24.70;54.00;;;;;;5035417;28;20855;-51
2021/09/17 05:46:35;;;;;;;2.10;1.40;;;24.70;54.00;;;;;;5048230;28;20245;-46
2021/09/17 05:49:02;;;;;;;1.50;1.40;;;24.70;54.00;;;;;;5030237;28;20257;-56
2021/09/17 05:51:28;;;;;;;1.33;1.23;;;24.70;54.00;;;;;;5031027;28;20322;-59
2021/09/17 05:53:55;;;;;;;1.40;1.30;;;24.60;53.90;;;;;;5029909;28;20237;-55
2021/09/17 05:56:21;;;;;;;1.65;1.50;;;24.70;54.00;;;;;;5031503;28;20230;-53
2021/09/17 05:58:48;;;;;;;1.90;1.55;;;24.70;54.00;;;;;;5030618;28;20281;-51
2021/09/17 06:01:15;;;;;;;1.60;1.50;;;24.70;54.00;;;;;;5030772;28;20222;-53
2021/09/17 06:03:41;;;;;;;1.70;1.60;;;24.60;53.90;;;;;;5031760;28;20242;-50
2021/09/17 06:06:08;;;;;;;1.85;1.50;;;24.60;53.90;;;;;;5030285;28;20199;-56
2021/09/17 06:08:34;;;;;;;1.60;1.30;;;24.70;53.90;;;;;;5028904;28;20230;-56
2021/09/17 06:11:01;;;;;;;1.30;1.20;;;24.70;54.00;;;;;;5028540;28;20265;-56
2021/09/17 06:13:27;;;;;;;2.20;1.50;;;24.60;53.90;;;;;;5030366;28;20248;-51
2021/09/17 06:15:54;;;;;;;1.73;1.60;;;24.70;53.90;;;;;;5029385;28;20234;-54
2021/09/17 06:18:20;;;;;;;1.50;1.40;;;24.70;53.90;;;;;;5028487;28;20234;-53
2021/09/17 06:20:47;;;;;;;3.30;1.30;;;24.70;53.90;;;;;;5029612;28;20674;-51
2021/09/17 06:23:13;;;;;;;1.42;1.30;;;24.60;54.00;;;;;;5030006;28;20297;-49
2021/09/17 06:25:40;;;;;;;1.50;1.40;;;24.70;54.10;;;;;;5026650;28;20246;-56
2021/09/17 06:28:07;;;;;;;1.67;1.58;;;24.70;54.10;;;;;;5016505;28;20698;-50
2021/09/17 06:30:33;;;;;;;1.60;1.50;;;24.70;54.10;;;;;;5030139;28;20565;-56
2021/09/17 06:32:59;;;;;;;1.90;1.80;;;24.70;54.10;;;;;;5029658;28;20241;-54
2021/09/17 06:35:26;;;;;;;1.48;1.40;;;24.70;54.10;;;;;;5029900;28;20237;-58
2021/09/17 06:37:52;;;;;;;2.05;1.58;;;24.70;54.00;;;;;;5030178;28;20697;-56
2021/09/17 06:40:19;;;;;;;1.40;1.30;;;24.70;54.00;;;;;;5027653;28;20291;-54
2021/09/17 06:42:45;;;;;;;1.45;1.35;;;24.70;54.00;;;;;;5030050;28;20250;-53
2021/09/17 06:45:12;;;;;;;1.40;1.27;;;24.60;53.90;;;;;;5029614;28;20580;-55
2021/09/17 06:47:38;;;;;;;1.67;1.38;;;24.60;53.90;;;;;;5030690;28;20238;-48
2021/09/17 06:50:05;;;;;;;1.60;1.50;;;24.60;53.80;;;;;;5029012;28;20660;-52
2021/09/17 06:52:31;;;;;;;1.40;1.30;;;24.70;53.90;;;;;;5037297;28;20356;-52
2021/09/17 06:54:58;;;;;;;1.52;1.30;;;24.70;53.90;;;;;;5033178;28;20249;-54
2021/09/17 06:57:24;;;;;;;1.73;1.45;;;24.70;53.80;;;;;;5029774;28;20642;-53
2021/09/17 06:59:51;;;;;;;2.53;1.50;;;24.70;53.80;;;;;;5026872;28;20281;-55
2021/09/17 07:02:17;;;;;;;1.80;1.40;;;24.70;54.10;;;;;;5033039;28;20260;-48
2021/09/17 07:04:45;;;;;;;1.50;1.40;;;24.60;53.90;;;;;;5021888;28;20620;-50
2021/09/17 07:07:11;;;;;;;1.70;1.60;;;24.60;54.20;;;;;;5029067;28;20202;-49
2021/09/17 07:09:38;;;;;;;1.63;1.52;;;24.70;54.40;;;;;;5029717;28;20678;-47
2021/09/17 07:12:04;;;;;;;1.60;1.50;;;24.70;54.60;;;;;;5029734;28;20266;-49
2021/09/17 07:14:31;;;;;;;2.00;1.90;;;24.70;54.60;;;;;;5028049;28;20306;-50
2021/09/17 07:16:57;;;;;;;2.53;1.77;;;24.70;54.40;;;;;;5029697;28;20209;-47
2021/09/17 07:19:25;;;;;;;2.33;1.60;;;24.70;54.80;;;;;;5027799;28;20241;-54
2021/09/17 07:21:51;;;;;;;3.60;1.63;;;24.70;54.80;;;;;;5032612;28;20244;-49
2021/09/17 07:24:17;;;;;;;1.95;1.45;;;24.70;55.20;;;;;;5033350;28;20241;-51
2021/09/17 07:26:44;;;;;;;3.17;2.20;;;24.70;54.50;;;;;;5032613;28;20237;-52
2021/09/17 07:29:10;;;;;;;5.30;2.47;;;24.70;54.50;;;;;;5033322;28;20285;-53
2021/09/17 07:31:37;;;;;;;4.60;3.83;;;24.60;52.90;;;;;;5029878;28;20274;-55
2021/09/17 07:34:03;;;;;;;6.53;4.50;;;24.50;49.40;;;;;;5032544;28;20230;-51
2021/09/17 07:36:30;;;;;;;4.25;3.67;;;24.20;47.90;;;;;;5031965;28;20242;-52
2021/09/17 07:38:56;;;;;;;4.57;3.88;;;24.10;48.90;;;;;;5032328;28;20279;-50
2021/09/17 07:41:23;;;;;;;4.57;3.30;;;24.20;47.80;;;;;;5031302;28;20266;-46
2021/09/17 07:43:49;;;;;;;5.10;3.42;;;24.20;47.80;;;;;;5033790;28;20586;-46
2021/09/17 07:46:16;;;;;;;4.63;3.28;;;24.30;47.90;;;;;;5025054;28;20226;-53
2021/09/17 07:48:42;;;;;;;5.43;3.03;;;24.40;48.20;;;;;;5033380;28;20241;-52
2021/09/17 07:51:09;;;;;;;3.47;2.75;;;24.40;48.00;;;;;;5033016;28;20633;-52
2021/09/17 07:53:36;;;;;;;3.22;2.60;;;24.40;48.80;;;;;;5034242;28;20233;-49
2021/09/17 07:56:02;;;;;;;2.63;2.40;;;24.40;48.10;;;;;;5032467;28;20289;-51
2021/09/17 07:58:29;;;;;;;3.03;2.78;;;24.50;48.10;;;;;;5032478;28;20245;-50
2021/09/17 08:00:55;;;;;;;3.63;2.60;;;24.50;48.10;;;;;;5032171;28;20349;-48
2021/09/17 08:03:25;;;;;;;3.50;3.20;;;24.50;48.30;;;;;;5030271;28;20230;-48
2021/09/17 08:05:51;;;;;;;4.55;2.72;;;24.30;48.20;;;;;;5027846;28;20352;-50
2021/09/17 08:08:18;;;;;;;4.00;2.83;;;24.40;48.10;;;;;;5031692;28;20306;-48
2021/09/17 08:10:44;;;;;;;2.65;2.45;;;24.40;48.20;;;;;;5027943;28;20750;-46
2021/09/17 08:13:11;;;;;;;6.30;3.38;;;24.40;48.00;;;;;;5032422;28;20230;-48
2021/09/17 08:15:37;;;;;;;5.10;2.40;;;24.40;48.50;;;;;;5031728;28;20249;-49
2021/09/17 08:18:04;;;;;;;3.85;2.45;;;24.60;49.00;;;;;;5029984;28;20351;-49
2021/09/17 08:20:31;;;;;;;3.90;2.13;;;24.60;49.20;;;;;;5041970;28;20265;-46
2021/09/17 08:22:58;;;;;;;5.97;2.67;;;24.70;49.20;;;;;;5030765;28;20238;-53
2021/09/17 08:25:24;;;;;;;4.05;2.63;;;24.70;48.90;;;;;;5031236;28;20580;-49
2021/09/17 08:27:51;;;;;;;4.72;2.50;;;24.70;48.60;;;;;;5030871;28;20234;-50
2021/09/17 08:30:18;;;;;;;5.38;2.53;;;24.60;48.20;;;;;;5030512;28;20222;-53
2021/09/17 08:32:44;;;;;;;3.80;2.40;;;24.70;48.90;;;;;;5028587;28;20668;-50
2021/09/17 08:35:10;;;;;;;3.20;2.40;;;24.70;48.70;;;;;;5030109;28;20303;-50
2021/09/17 08:37:37;;;;;;;5.35;3.15;;;24.70;48.50;;;;;;5028969;28;20237;-52
2021/09/17 08:40:03;;;;;;;5.35;2.70;;;24.60;48.50;;;;;;5030726;28;20668;-49
2021/09/17 08:42:30;;;;;;;2.40;2.20;;;24.60;49.10;;;;;;5031866;28;20245;-44
2021/09/17 08:44:56;;;;;;;5.63;2.40;;;24.70;48.70;;;;;;5032474;28;20237;-50
2021/09/17 08:47:23;;;;;;;3.13;2.50;;;24.70;49.00;;;;;;5031821;28;20202;-50
2021/09/17 08:49:50;;;;;;;2.67;2.47;;;24.70;49.00;;;;;;5030493;28;20241;-51
2021/09/17 08:52:16;;;;;;;2.88;2.50;;;24.70;49.20;;;;;;5028804;28;20415;-52
2021/09/17 08:54:43;;;;;;;2.83;2.33;;;24.70;49.70;;;;;;5032407;28;20670;-52
2021/09/17 08:57:10;;;;;;;3.85;2.70;;;24.70;48.60;;;;;;5030079;28;20296;-51
2021/09/17 08:59:36;;;;;;;2.50;2.30;;;24.70;48.30;;;;;;5032222;28;20298;-49
2021/09/17 09:02:03;;;;;;;4.43;2.50;;;24.70;48.80;;;;;;5030004;28;20198;-47
2021/09/17 09:04:30;;;;;;;5.70;2.47;;;24.70;48.30;;;;;;5034554;28;20202;-47
2021/09/17 09:06:56;;;;;;;2.63;2.25;;;24.70;48.30;;;;;;5029420;28;20289;-45
2021/09/17 09:09:23;;;;;;;3.13;2.38;;;24.70;48.30;;;;;;5029983;28;20678;-48
2021/09/17 09:11:49;;;;;;;2.70;2.50;;;24.70;48.30;;;;;;5027876;28;20292;-45
2021/09/17 09:14:16;;;;;;;4.30;2.85;;;24.70;48.20;;;;;;5029735;28;20230;-50
2021/09/17 09:16:42;;;;;;;2.78;2.40;;;24.70;49.00;;;;;;5028737;28;20242;-51
2021/09/17 09:19:09;;;;;;;3.08;2.28;;;24.70;48.30;;;;;;5030115;28;20256;-52
2021/09/17 09:21:36;;;;;;;3.15;2.55;;;24.70;47.90;;;;;;5032491;28;20384;-51
2021/09/17 09:24:02;;;;;;;3.45;2.63;;;24.70;47.80;;;;;;5028689;28;20258;-47
2021/09/17 09:26:28;;;;;;;2.50;2.30;;;24.70;47.60;;;;;;5028767;28;20629;-49
2021/09/17 09:28:55;;;;;;;2.90;2.55;;;24.60;47.60;;;;;;5023720;28;20286;-49
2021/09/17 09:31:21;;;;;;;3.70;2.60;;;24.60;47.40;;;;;;5031432;28;20314;-51
2021/09/17 09:33:48;;;;;;;4.20;2.50;;;24.60;47.30;;;;;;5031644;28;20682;-50
2021/09/17 09:36:14;;;;;;;3.10;2.55;;;24.60;47.20;;;;;;5030274;28;20226;-49
2021/09/17 09:38:41;;;;;;;2.60;2.40;;;24.60;47.10;;;;;;5030435;28;20230;-48
2021/09/17 09:41:07;;;;;;;3.92;2.78;;;24.50;47.60;;;;;;5031784;28;20226;-48
2021/09/17 09:43:34;;;;;;;2.83;2.55;;;24.60;47.40;;;;;;5030609;28;20230;-51
2021/09/17 09:46:00;;;;;;;3.13;2.60;;;24.60;47.10;;;;;;5029829;28;20634;-51
2021/09/17 09:48:27;;;;;;;3.50;2.38;;;24.60;46.80;;;;;;5029126;28;20322;-49
2021/09/17 09:50:53;;;;;;;2.45;2.25;;;24.60;46.90;;;;;;5029055;28;20253;-54
2021/09/17 09:53:20;;;;;;;2.90;2.53;;;24.60;47.00;;;;;;5030393;28;20310;-49
2021/09/17 09:55:46;;;;;;;2.50;2.30;;;24.60;47.00;;;;;;5031324;28;20233;-49
2021/09/17 09:58:13;;;;;;;2.90;2.60;;;24.60;47.10;;;;;;5030607;28;20246;-48
2021/09/17 10:00:39;;;;;;;4.57;2.95;;;24.60;47.00;;;;;;5026223;28;20226;-47
2021/09/17 10:03:06;;;;;;;3.00;2.40;;;24.60;47.30;;;;;;5030266;28;20292;-47
2021/09/17 10:05:35;;;;;;;2.38;2.17;;;24.60;47.20;;;;;;5031903;28;20230;-46
2021/09/17 10:08:01;;;;;;;2.90;2.13;;;24.70;47.10;;;;;;5019305;28;20637;-48
2021/09/17 10:10:27;;;;;;;3.60;2.35;;;24.70;47.00;;;;;;5028789;28;20258;-45
2021/09/17 10:12:54;;;;;;;2.90;2.00;;;24.70;46.80;;;;;;5031389;28;20284;-56
2021/09/17 10:15:20;;;;;;;2.53;2.30;;;24.70;47.00;;;;;;5029219;28;20264;-48
2021/09/17 10:17:47;;;;;;;2.60;2.40;;;24.70;46.90;;;;;;5029255;28;20237;-50
2021/09/17 10:20:13;;;;;;;2.90;2.40;;;24.70;46.70;;;;;;5031022;28;20241;-50
2021/09/17 10:22:40;;;;;;;3.63;2.50;;;24.70;47.00;;;;;;5034707;28;20626;-54
2021/09/17 10:25:06;;;;;;;3.42;2.40;;;24.70;47.50;;;;;;5028619;28;20234;-49
2021/09/17 10:27:33;;;;;;;1.98;1.88;;;24.70;47.50;;;;;;5028560;28;20233;-53
2021/09/17 10:29:59;;;;;;;2.30;2.08;;;24.70;47.10;;;;;;5029926;28;20590;-49
2021/09/17 10:32:26;;;;;;;2.50;2.30;;;24.70;47.40;;;;;;5028490;28;20309;-49
2021/09/17 10:34:52;;;;;;;3.33;2.22;;;24.70;46.90;;;;;;5029563;28;20238;-55
2021/09/17 10:37:19;;;;;;;2.92;2.20;;;24.80;47.30;;;;;;5029321;28;20640;-53
2021/09/17 10:39:45;;;;;;;2.13;1.95;;;24.80;47.90;;;;;;5030480;28;20338;-53
2021/09/17 10:42:12;;;;;;;2.35;2.05;;;24.80;48.10;;;;;;5028996;28;20242;-51
2021/09/17 10:44:38;;;;;;;3.53;2.25;;;24.80;47.70;;;;;;5036558;28;20642;-50
2021/09/17 10:47:05;;;;;;;4.97;2.20;;;24.70;48.10;;;;;;5039676;28;20242;-50
2021/09/17 10:49:31;;;;;;;2.47;1.85;;;24.80;48.20;;;;;;5029342;28;20261;-51
2021/09/17 10:51:57;;;;;;;2.85;2.00;;;24.80;47.50;;;;;;5029018;28;20313;-54
2021/09/17 10:54:24;;;;;;;2.83;1.77;;;24.80;47.10;;;;;;5027400;28;20246;-54
2021/09/17 10:56:50;;;;;;;3.08;1.90;;;24.80;46.60;;;;;;5024233;28;20257;-53
2021/09/17 10:59:21;;;;;;;5.00;2.00;;;24.70;46.60;;;;;;5029389;28;20336;-50
2021/09/17 11:01:47;;;;;;;2.28;1.83;;;24.80;47.70;;;;;;5029426;28;20249;-46
2021/09/17 11:04:14;;;;;;;2.13;2.03;;;24.80;47.30;;;;;;5032965;28;20198;-51
2021/09/17 11:06:41;;;;;;;3.60;1.92;;;24.80;46.40;;;;;;5026866;28;20302;-54
2021/09/17 11:09:07;;;;;;;2.70;1.80;;;24.80;46.10;;;;;;5027743;28;20249;-54
2021/09/17 11:11:34;;;;;;;3.35;1.60;;;24.80;47.00;;;;;;5030451;28;20385;-53
2021/09/17 11:14:01;;;;;;;1.90;1.80;;;24.80;47.30;;;;;;5023878;28;20194;-54
2021/09/17 11:16:27;;;;;;;1.70;1.60;;;24.90;48.50;;;;;;5026205;28;20288;-51
2021/09/17 11:18:54;;;;;;;2.78;1.73;;;24.90;49.40;;;;;;5027368;28;20230;-55
2021/09/17 11:21:20;;;;;;;2.53;1.90;;;24.90;49.20;;;;;;5015846;28;20242;-55
2021/09/17 11:23:48;;;;;;;4.30;1.80;;;24.80;48.40;;;;;;5029592;28;20260;-50
2021/09/17 11:26:15;;;;;;;2.75;1.85;;;24.80;48.20;;;;;;5030295;28;20726;-54
2021/09/17 11:28:41;;;;;;;2.05;1.90;;;24.80;47.70;;;;;;5029603;28;20253;-47
2021/09/17 11:31:08;;;;;;;1.70;1.60;;;24.80;47.70;;;;;;5030665;28;20261;-52
2021/09/17 11:33:34;;;;;;;4.05;2.03;;;24.80;47.70;;;;;;5029664;28;20686;-51
2021/09/17 11:36:01;;;;;;;2.10;1.90;;;24.80;47.30;;;;;;5028691;28;20260;-49
2021/09/17 11:38:28;;;;;;;2.05;1.80;;;24.80;47.20;;;;;;5026565;28;20202;-52
2021/09/17 11:40:54;;;;;;;2.95;1.92;;;24.80;46.80;;;;;;5022957;28;20314;-50
2021/09/17 11:43:20;;;;;;;2.65;1.70;;;24.80;48.40;;;;;;5027174;28;20289;-48
2021/09/17 11:45:47;;;;;;;2.20;1.70;;;24.80;47.90;;;;;;5028217;28;20605;-52
2021/09/17 11:48:13;;;;;;;3.22;2.10;;;24.80;46.50;;;;;;5027331;28;20302;-51
2021/09/17 11:50:40;;;;;;;3.13;1.83;;;24.80;45.90;;;;;;5025290;28;20307;-50
2021/09/17 11:53:06;;;;;;;3.30;1.90;;;24.70;45.70;;;;;;5028592;28;20675;-54
2021/09/17 11:55:33;;;;;;;1.73;1.60;;;24.80;46.60;;;;;;5028811;28;20234;-52
2021/09/17 11:58:00;;;;;;;4.60;2.17;;;24.80;46.80;;;;;;5027620;28;20245;-55
2021/09/17 12:00:26;;;;;;;2.13;1.92;;;24.80;47.20;;;;;;5028802;28;20791;-54
2021/09/17 12:02:53;;;;;;;1.90;1.80;;;24.70;47.00;;;;;;5029543;28;20248;-47
2021/09/17 12:05:19;;;;;;;3.25;2.20;;;24.70;47.00;;;;;;5029969;28;20294;-51
2021/09/17 12:07:48;;;;;;;4.07;2.10;;;24.70;46.70;;;;;;5029414;28;20235;-52
2021/09/17 12:10:15;;;;;;;2.40;2.20;;;24.70;47.20;;;;;;5032516;28;20221;-54
2021/09/17 12:12:41;;;;;;;2.28;2.08;;;24.70;46.40;;;;;;5026379;28;20806;-49
2021/09/17 12:15:08;;;;;;;2.33;1.90;;;24.70;46.60;;;;;;5028155;28;20218;-49
2021/09/17 12:17:34;;;;;;;1.92;1.80;;;24.80;47.60;;;;;;5022720;28;20230;-49
2021/09/17 12:20:01;;;;;;;2.67;2.10;;;24.80;48.00;;;;;;5025261;28;20718;-50
2021/09/17 12:22:27;;;;;;;3.53;2.03;;;24.90;48.00;;;;;;5030735;28;20234;-45
2021/09/17 12:24:54;;;;;;;2.08;1.75;;;24.90;48.50;;;;;;5031487;28;20242;-50
2021/09/17 12:27:20;;;;;;;2.00;1.88;;;24.90;47.90;;;;;;5032142;28;20234;-53
2021/09/17 12:29:47;;;;;;;2.40;2.17;;;24.90;48.00;;;;;;5032208;28;20219;-53
2021/09/17 12:32:13;;;;;;;2.45;2.25;;;24.90;48.10;;;;;;5031852;28;20594;-56
2021/09/17 12:34:40;;;;;;;2.00;1.80;;;24.90;47.60;;;;;;5031791;28;20234;-53
2021/09/17 12:37:06;;;;;;;3.00;2.28;;;24.90;47.50;;;;;;5030853;28;20257;-56
2021/09/17 12:39:33;;;;;;;1.98;1.88;;;24.90;48.10;;;;;;5014597;28;20226;-49
2021/09/17 12:41:59;;;;;;;1.90;1.75;;;24.90;47.90;;;;;;5031910;28;20295;-49
2021/09/17 12:44:26;;;;;;;3.55;2.28;;;24.90;47.30;;;;;;5030502;28;20249;-54